Time;durP1;ratioP1;P1;durP2;ratioP2;P2;SDS_P1;SDS_P2;PMS_P1;PMS_P2;Temp;Humidity;BMP_temperature;BMP_pressure;BME280_temperature;BME280_humidity;BME280_pressure;Samples;Min_cycle;Max_cycle;Signal;HPM_P1;HPM_P2
2022/07/30 00:00:45;;;;;;;;;;;26.90;75.50;;;;;;5056455;28;19925;-79
2022/07/30 00:03:14;;;;;;;;;;;26.90;75.50;;;;;;5056856;28;19924;-79
2022/07/30 00:05:40;;;;;;;;;;;26.90;75.50;;;;;;5055816;28;19935;-79
2022/07/30 00:08:07;;;;;;;;;;;26.90;75.60;;;;;;5056594;28;19925;-81
2022/07/30 00:10:34;;;;;;;;;;;26.90;75.60;;;;;;5056163;28;19964;-81
2022/07/30 00:13:00;;;;;;;;;;;26.90;75.70;;;;;;5056546;28;19971;-81
2022/07/30 00:15:27;;;;;;;;;;;26.90;75.70;;;;;;5056724;28;19925;-81
2022/07/30 00:17:54;;;;;;;;;;;26.90;75.70;;;;;;5056314;28;20384;-81
2022/07/30 00:20:22;;;;;;;;;;;26.90;75.70;;;;;;5056098;28;20359;-81
2022/07/30 00:22:49;;;;;;;;;;;26.90;75.70;;;;;;5056037;28;19968;-81
2022/07/30 00:25:17;;;;;;;;;;;26.90;75.70;;;;;;5056154;28;19975;-81
2022/07/30 00:27:44;;;;;;;;;;;26.90;75.80;;;;;;5056489;28;19931;-80
2022/07/30 00:30:11;;;;;;;;;;;26.90;75.70;;;;;;5056567;28;20300;-81
2022/07/30 00:32:37;;;;;;;;;;;26.90;75.70;;;;;;5056011;28;19928;-81
2022/07/30 00:35:05;;;;;;;;;;;26.90;75.80;;;;;;5056384;28;19932;-81
2022/07/30 00:37:33;;;;;;;;;;;26.90;75.80;;;;;;5055942;28;20376;-81
2022/07/30 00:39:59;;;;;;;;;;;26.90;75.80;;;;;;5055963;28;19947;-81
2022/07/30 00:42:36;;;;;;;;;;;26.90;75.80;;;;;;5056403;28;19975;-81
2022/07/30 00:45:03;;;;;;;;;;;26.90;75.80;;;;;;5055935;28;20033;-81
2022/07/30 00:47:29;;;;;;;;;;;26.90;75.70;;;;;;5056031;28;20019;-81
2022/07/30 00:49:56;;;;;;;;;;;26.90;75.70;;;;;;5055331;28;19932;-81
2022/07/30 00:52:23;;;;;;;;;;;26.90;75.70;;;;;;5056141;28;20356;-81
2022/07/30 00:54:51;;;;;;;;;;;26.90;75.70;;;;;;5056436;28;19925;-81
2022/07/30 00:57:17;;;;;;;;;;;26.90;75.70;;;;;;5055912;28;19931;-81
2022/07/30 00:59:44;;;;;;;;;;;26.90;75.70;;;;;;5055750;28;19964;-81
2022/07/30 01:02:11;;;;;;;;;;;26.90;75.60;;;;;;5058778;28;19971;-81
2022/07/30 01:04:38;;;;;;;;;;;26.90;75.50;;;;;;5058814;28;19971;-81
2022/07/30 01:07:05;;;;;;;;;;;26.80;75.30;;;;;;5058998;28;19960;-81
2022/07/30 01:09:31;;;;;;;;;;;26.80;75.30;;;;;;5058603;28;19936;-81
2022/07/30 01:11:59;;;;;;;;;;;26.80;75.20;;;;;;5058871;28;19976;-81
2022/07/30 01:14:26;;;;;;;;;;;26.80;75.20;;;;;;5058769;28;20297;-81
2022/07/30 01:16:53;;;;;;;;;;;26.80;75.20;;;;;;5058898;28;20038;-81
2022/07/30 01:22:09;;;;;;;;;;;26.80;75.10;;;;;;5058687;28;20403;-81
2022/07/30 01:24:38;;;;;;;;;;;26.80;75.10;;;;;;5059409;28;19931;-81
2022/07/30 01:27:07;;;;;;;;;;;26.80;75.10;;;;;;5058545;28;19924;-81
2022/07/30 01:29:34;;;;;;;;;;;26.80;75.10;;;;;;5058399;28;19925;-79
2022/07/30 01:32:02;;;;;;;;;;;26.80;75.00;;;;;;5058471;28;20020;-79
2022/07/30 01:34:29;;;;;;;;;;;26.90;75.10;;;;;;5058473;28;19932;-79
2022/07/30 01:36:57;;;;;;;;;;;26.80;75.00;;;;;;5058224;28;19924;-80
2022/07/30 08:19:08;;;;;;;;;;;26.50;66.90;;;;;;5891487;22;20409;-77
2022/07/30 08:21:35;;;;;;;;;;;26.60;66.50;;;;;;5054380;28;19931;-77
2022/07/30 08:24:01;;;;;;;;;;;26.50;65.70;;;;;;5055714;28;19964;-76
2022/07/30 08:26:28;;;;;;;;;;;26.50;65.30;;;;;;5054480;28;19975;-75
2022/07/30 08:28:54;;;;;;;;;;;26.40;64.90;;;;;;5054481;28;19931;-75
2022/07/30 08:31:21;;;;;;;;;;;26.40;64.40;;;;;;5054819;28;20008;-80
2022/07/30 08:33:48;;;;;;;;;;;26.40;63.90;;;;;;5055267;28;20023;-80
2022/07/30 08:36:16;;;;;;;;;;;26.40;63.20;;;;;;5055316;28;20423;-81
2022/07/30 08:38:42;;;;;;;;;;;26.30;62.50;;;;;;5055507;28;20023;-81
2022/07/30 08:41:09;;;;;;;;;;;26.40;62.20;;;;;;5056069;28;19990;-81
2022/07/30 08:43:36;;;;;;;;;;;26.40;62.20;;;;;;5055559;28;20383;-81
2022/07/30 08:46:05;;;;;;;;;;;26.40;61.90;;;;;;5055830;28;19932;-82
2022/07/30 08:48:32;;;;;;;;;;;26.40;61.50;;;;;;5054971;28;19979;-81
2022/07/30 08:50:59;;;;;;;;;;;26.40;61.00;;;;;;5054912;28;19929;-82
2022/07/30 08:53:27;;;;;;;;;;;26.40;60.60;;;;;;5055298;28;20015;-81
2022/07/30 08:55:54;;;;;;;;;;;26.40;60.20;;;;;;5055575;28;19924;-79
2022/07/30 08:58:27;;;;;;;;;;;26.40;59.80;;;;;;5055223;28;20031;-80
2022/07/30 09:00:54;;;;;;;;;;;26.40;59.50;;;;;;5060507;28;19924;-80
2022/07/30 09:03:22;;;;;;;;;;;26.40;59.10;;;;;;5063097;28;19947;-80
2022/07/30 09:05:49;;;;;;;;;;;26.40;58.60;;;;;;5058246;28;20294;-78
2022/07/30 09:08:16;;;;;;;;;;;26.30;58.00;;;;;;5058526;28;19925;-82
2022/07/30 09:10:44;;;;;;;;;;;26.30;57.50;;;;;;5057250;28;20307;-80
2022/07/30 09:13:22;;;;;;;;;;;26.30;56.90;;;;;;5056852;28;20387;-81
2022/07/30 09:15:49;;;;;;;;;;;26.30;56.80;;;;;;5055141;28;19965;-84
2022/07/30 09:18:25;;;;;;;;;;;26.30;56.80;;;;;;5054809;28;20420;-85
2022/07/30 09:20:52;;;;;;;;;;;26.30;56.40;;;;;;5056464;28;20015;-84
2022/07/30 09:23:19;;;;;;;;;;;26.30;56.00;;;;;;5058476;28;19928;-83
2022/07/30 09:25:48;;;;;;;;;;;26.30;55.60;;;;;;5057961;28;19964;-83
2022/07/30 09:28:15;;;;;;;;;;;26.30;55.40;;;;;;5060823;28;20011;-84
2022/07/30 09:30:47;;;;;;;;;;;26.30;55.10;;;;;;5062480;28;19990;-83
2022/07/30 09:33:13;;;;;;;;;;;26.40;55.00;;;;;;5061451;28;19932;-81
2022/07/30 09:35:40;;;;;;;;;;;26.40;54.70;;;;;;5061926;28;19985;-82
2022/07/30 09:38:07;;;;;;;;;;;26.40;54.50;;;;;;5061802;28;19925;-82
2022/07/30 09:40:34;;;;;;;;;;;26.40;54.30;;;;;;5061999;28;19924;-83
2022/07/30 09:43:03;;;;;;;;;;;26.40;54.00;;;;;;5061891;28;20019;-81
2022/07/30 09:45:31;;;;;;;;;;;26.40;53.70;;;;;;5061811;28;19924;-79
2022/07/30 09:47:58;;;;;;;;;;;26.40;53.50;;;;;;5062443;28;19925;-80
2022/07/30 09:50:25;;;;;;;;;;;26.40;53.20;;;;;;5065621;28;19964;-80
2022/07/30 09:52:54;;;;;;;;;;;26.40;53.10;;;;;;5065456;28;20296;-79
2022/07/30 09:55:31;;;;;;;;;;;26.50;52.90;;;;;;5064940;28;19925;-80
2022/07/30 09:57:59;;;;;;;;;;;26.50;52.70;;;;;;5064924;28;19925;-80
2022/07/30 10:00:29;;;;;;;;;;;26.50;52.40;;;;;;5061964;28;19979;-80
2022/07/30 10:02:56;;;;;;;;;;;26.50;52.10;;;;;;5061988;28;19925;-84
2022/07/30 10:05:23;;;;;;;;;;;26.50;52.10;;;;;;5061405;28;20398;-78
2022/07/30 10:07:51;;;;;;;;;;;26.50;52.10;;;;;;5060127;28;19964;-76
2022/07/30 10:10:19;;;;;;;;;;;26.50;51.80;;;;;;5060743;28;19968;-78
2022/07/30 10:12:46;;;;;;;;;;;26.50;51.50;;;;;;5060007;28;19992;-82
2022/07/30 10:15:13;;;;;;;;;;;26.50;51.30;;;;;;5062009;28;19996;-80
2022/07/30 10:17:43;;;;;;;;;;;26.50;51.10;;;;;;5061615;28;19979;-80
2022/07/30 10:20:10;;;;;;;;;;;26.50;50.70;;;;;;5061252;28;19931;-80
2022/07/30 10:22:38;;;;;;;;;;;26.50;50.40;;;;;;5061650;28;19932;-79
2022/07/30 10:25:05;;;;;;;;;;;26.50;50.20;;;;;;5059927;28;19956;-80
2022/07/30 10:27:31;;;;;;;;;;;26.50;50.10;;;;;;5060870;28;20388;-79
2022/07/30 10:29:59;;;;;;;;;;;26.50;49.90;;;;;;5060503;28;20062;-79
2022/07/30 10:32:29;;;;;;;;;;;26.50;49.70;;;;;;5059800;28;19925;-82
2022/07/30 10:35:00;;;;;;;;;;;26.50;49.50;;;;;;5062154;28;19925;-80
2022/07/30 10:37:28;;;;;;;;;;;26.50;49.30;;;;;;5061073;28;19932;-81
2022/07/30 10:39:57;;;;;;;;;;;26.50;49.10;;;;;;5061327;28;19972;-80
2022/07/30 10:42:31;;;;;;;;;;;26.60;49.00;;;;;;5060584;28;20454;-80
2022/07/30 10:45:13;;;;;;;;;;;26.60;48.70;;;;;;5060057;28;20011;-80
2022/07/30 10:47:40;;;;;;;;;;;26.60;48.40;;;;;;5057700;28;19928;-80
2022/07/30 10:50:09;;;;;;;;;;;26.50;48.10;;;;;;5059145;28;20359;-79
2022/07/30 10:52:42;;;;;;;;;;;26.50;47.90;;;;;;5058827;28;20465;-79
2022/07/30 10:55:12;;;;;;;;;;;26.60;47.80;;;;;;5060302;28;20016;-80
2022/07/30 10:57:56;;;;;;;;;;;26.50;47.40;;;;;;5064752;28;19924;-82
2022/07/30 11:00:24;;;;;;;;;;;26.50;47.20;;;;;;5059567;28;19931;-81
2022/07/30 11:03:09;;;;;;;;;;;26.50;47.20;;;;;;5060563;28;19932;-81
2022/07/30 11:05:37;;;;;;;;;;;26.50;47.20;;;;;;5063094;28;20020;-80
2022/07/30 11:08:19;;;;;;;;;;;26.50;46.80;;;;;;5059409;28;19931;-80
2022/07/30 11:10:45;;;;;;;;;;;26.50;46.50;;;;;;5058543;28;20008;-80
2022/07/30 11:13:12;;;;;;;;;;;26.50;46.90;;;;;;5060712;28;19984;-81
2022/07/30 11:15:52;;;;;;;;;;;26.50;46.00;;;;;;5060368;28;20028;-84
2022/07/30 11:18:19;;;;;;;;;;;26.50;45.80;;;;;;5058288;28;20447;-82
2022/07/30 11:21:13;;;;;;;;;;;26.60;45.70;;;;;;5059054;28;20404;-83
2022/07/30 11:23:41;;;;;;;;;;;26.60;45.50;;;;;;5057177;28;19935;-85
2022/07/30 11:26:08;;;;;;;;;;;26.60;45.30;;;;;;5057679;28;19925;-81
2022/07/30 11:28:36;;;;;;;;;;;26.60;45.10;;;;;;5058928;28;20016;-80
2022/07/30 11:31:03;;;;;;;;;;;26.60;44.80;;;;;;5059536;28;19925;-81
2022/07/30 11:33:30;;;;;;;;;;;26.60;44.60;;;;;;5057828;28;19967;-79
2022/07/30 11:36:08;;;;;;;;;;;26.60;44.50;;;;;;5056751;28;19925;-80
2022/07/30 11:38:54;;;;;;;;;;;26.60;44.30;;;;;;5057683;28;20398;-80
2022/07/30 11:41:21;;;;;;;;;;;26.60;44.20;;;;;;5056537;28;19924;-78
2022/07/30 11:43:48;;;;;;;;;;;26.60;44.00;;;;;;5057442;28;19925;-82
2022/07/30 11:46:16;;;;;;;;;;;26.60;43.90;;;;;;5057304;28;20012;-79
2022/07/30 11:48:54;;;;;;;;;;;26.60;43.80;;;;;;5056835;28;19929;-81
2022/07/30 11:51:23;;;;;;;;;;;26.60;43.60;;;;;;5057347;28;20015;-85
2022/07/30 11:54:00;;;;;;;;;;;26.60;43.50;;;;;;5058354;28;19987;-82
2022/07/30 11:56:26;;;;;;;;;;;26.60;43.40;;;;;;5058950;28;19924;-83
2022/07/30 11:59:00;;;;;;;;;;;26.60;43.20;;;;;;5062303;28;19976;-83
2022/07/30 12:01:27;;;;;;;;;;;26.60;43.00;;;;;;5058936;28;19925;-83
2022/07/30 12:03:55;;;;;;;;;;;26.60;42.80;;;;;;5058667;28;19925;-81
2022/07/30 12:06:23;;;;;;;;;;;26.60;42.50;;;;;;5058320;28;19931;-82
2022/07/30 12:08:50;;;;;;;;;;;26.60;42.30;;;;;;5060761;28;20350;-82
2022/07/30 12:11:17;;;;;;;;;;;26.60;42.30;;;;;;5061659;28;19964;-82
2022/07/30 12:13:44;;;;;;;;;;;26.60;42.30;;;;;;5061623;28;20019;-83
2022/07/30 12:16:12;;;;;;;;;;;26.60;42.30;;;;;;5061347;28;19931;-82
2022/07/30 12:18:39;;;;;;;;;;;26.60;42.10;;;;;;5061019;28;19964;-83
2022/07/30 12:21:07;;;;;;;;;;;26.60;41.90;;;;;;5061306;28;19960;-83
2022/07/30 12:23:37;;;;;;;;;;;26.60;41.70;;;;;;5061011;28;21744;-83
2022/07/30 12:26:04;;;;;;;;;;;26.60;41.50;;;;;;5061812;28;20019;-83
2022/07/30 12:28:32;;;;;;;;;;;26.60;41.30;;;;;;5062276;28;19964;-83
2022/07/30 12:31:01;;;;;;;;;;;26.60;41.20;;;;;;5061976;28;20020;-85
2022/07/30 12:33:28;;;;;;;;;;;26.60;41.00;;;;;;5060575;28;19925;-84
2022/07/30 12:35:56;;;;;;;;;;;26.60;40.90;;;;;;5058004;28;19979;-84
2022/07/30 12:38:23;;;;;;;;;;;26.60;40.80;;;;;;5056394;28;19925;-84
2022/07/30 12:40:52;;;;;;;;;;;26.60;40.60;;;;;;5063738;28;20369;-83
2022/07/30 12:46:27;;;;;;;;;;;26.60;40.40;;;;;;5060867;28;19935;-84
2022/07/30 12:48:55;;;;;;;;;;;26.60;40.80;;;;;;5058917;28;19978;-83
2022/07/30 12:51:23;;;;;;;;;;;26.60;40.10;;;;;;5057669;28;19975;-83
2022/07/30 12:53:50;;;;;;;;;;;26.60;40.00;;;;;;5058748;28;19924;-83
2022/07/30 12:56:19;;;;;;;;;;;26.60;39.80;;;;;;5059316;28;20019;-82
2022/07/30 12:58:46;;;;;;;;;;;26.60;39.70;;;;;;5056660;28;19925;-85
2022/07/30 13:01:14;;;;;;;;;;;26.60;39.60;;;;;;5058901;28;20011;-85
2022/07/30 13:03:41;;;;;;;;;;;26.60;39.50;;;;;;5057155;28;19947;-84
2022/07/30 13:06:12;;;;;;;;;;;26.60;39.30;;;;;;5067989;28;19944;-85
2022/07/30 13:08:49;;;;;;;;;;;26.60;39.20;;;;;;5074572;28;19967;-82
2022/07/30 13:11:16;;;;;;;;;;;26.60;39.10;;;;;;5077684;28;19952;-82
2022/07/30 13:13:44;;;;;;;;;;;26.60;38.90;;;;;;5068006;28;19929;-81
2022/07/30 13:16:11;;;;;;;;;;;26.60;38.80;;;;;;5064003;28;19968;-82
2022/07/30 13:18:38;;;;;;;;;;;26.60;38.60;;;;;;5060661;28;19947;-81
2022/07/30 13:21:06;;;;;;;;;;;26.60;38.50;;;;;;5058350;28;20016;-79
2022/07/30 13:23:33;;;;;;;;;;;26.60;38.40;;;;;;5061023;28;19947;-79
2022/07/30 13:26:00;;;;;;;;;;;26.60;38.20;;;;;;5061236;28;19992;-80
2022/07/30 13:28:27;;;;;;;;;;;26.60;38.10;;;;;;5059356;28;20353;-83
2022/07/30 13:30:56;;;;;;;;;;;26.60;38.00;;;;;;5056956;28;19925;-82
2022/07/30 13:33:22;;;;;;;;;;;26.60;37.90;;;;;;5056416;28;20019;-79
2022/07/30 13:35:49;;;;;;;;;;;26.60;37.80;;;;;;5057795;28;19959;-81
2022/07/30 13:38:16;;;;;;;;;;;26.60;37.60;;;;;;5056704;28;19955;-82
2022/07/30 13:40:42;;;;;;;;;;;26.60;37.60;;;;;;5056529;28;19948;-81
2022/07/30 13:43:09;;;;;;;;;;;26.60;37.40;;;;;;5057372;28;20016;-81
2022/07/30 13:45:36;;;;;;;;;;;26.70;37.30;;;;;;5057062;28;19968;-82
2022/07/30 13:48:04;;;;;;;;;;;26.70;37.20;;;;;;5057520;28;19935;-82
2022/07/30 13:50:31;;;;;;;;;;;26.70;37.30;;;;;;5056867;28;20019;-83
2022/07/30 13:52:57;;;;;;;;;;;26.70;37.30;;;;;;5056650;28;19925;-81
2022/07/30 13:55:24;;;;;;;;;;;26.70;37.20;;;;;;5056473;28;20020;-81
2022/07/30 13:57:51;;;;;;;;;;;26.70;37.20;;;;;;5056363;28;19925;-81
2022/07/30 14:00:17;;;;;;;;;;;26.70;37.20;;;;;;5055029;28;20024;-83
2022/07/30 14:02:44;;;;;;;;;;;26.70;37.20;;;;;;5055605;28;19925;-83
2022/07/30 14:05:12;;;;;;;;;;;26.70;37.20;;;;;;5056703;28;20019;-81
2022/07/30 14:07:39;;;;;;;;;;;26.80;37.30;;;;;;5058384;28;20387;-81
2022/07/30 14:10:07;;;;;;;;;;;26.80;37.00;;;;;;5059843;28;19925;-81
2022/07/30 14:12:33;;;;;;;;;;;26.80;37.00;;;;;;5060418;28;19975;-81
2022/07/30 14:15:00;;;;;;;;;;;26.80;36.90;;;;;;5058621;28;20443;-80
2022/07/30 14:17:27;;;;;;;;;;;26.80;36.80;;;;;;5061564;28;20016;-81
2022/07/30 14:19:54;;;;;;;;;;;26.90;36.80;;;;;;5060053;28;19967;-81
2022/07/30 14:22:22;;;;;;;;;;;26.80;36.70;;;;;;5059096;28;19933;-81
2022/07/30 14:24:49;;;;;;;;;;;26.80;36.60;;;;;;5057477;28;20011;-81
2022/07/30 14:27:18;;;;;;;;;;;26.80;36.50;;;;;;5057508;28;20019;-81
2022/07/30 14:29:45;;;;;;;;;;;26.80;36.50;;;;;;5057013;28;20089;-82
2022/07/30 14:32:12;;;;;;;;;;;26.80;36.40;;;;;;5057221;28;20011;-82
2022/07/30 14:34:38;;;;;;;;;;;26.80;36.40;;;;;;5057130;28;19967;-81
2022/07/30 14:37:05;;;;;;;;;;;26.80;36.30;;;;;;5056988;28;19924;-81
2022/07/30 14:39:33;;;;;;;;;;;26.80;36.20;;;;;;5057013;28;19925;-82
2022/07/30 14:42:00;;;;;;;;;;;26.80;36.20;;;;;;5056842;28;19925;-82
2022/07/30 14:44:26;;;;;;;;;;;26.80;36.10;;;;;;5058056;28;20023;-82
2022/07/30 14:46:53;;;;;;;;;;;26.80;36.10;;;;;;5059617;28;20031;-82
2022/07/30 14:49:20;;;;;;;;;;;26.80;36.00;;;;;;5060135;28;20019;-82
2022/07/30 14:51:46;;;;;;;;;;;26.80;36.00;;;;;;5059458;28;20027;-82
2022/07/30 14:54:13;;;;;;;;;;;26.80;35.90;;;;;;5060554;28;19972;-82
2022/07/30 14:56:41;;;;;;;;;;;26.80;35.90;;;;;;5060745;28;19926;-82
2022/07/30 14:59:08;;;;;;;;;;;26.80;35.80;;;;;;5059410;28;19956;-82
2022/07/30 15:01:35;;;;;;;;;;;26.80;35.80;;;;;;5057079;28;19925;-82
2022/07/30 15:04:01;;;;;;;;;;;26.80;35.80;;;;;;5056471;28;19925;-81
2022/07/30 15:06:28;;;;;;;;;;;26.80;35.70;;;;;;5057554;28;20012;-81
2022/07/30 15:08:55;;;;;;;;;;;26.90;35.70;;;;;;5056068;28;19967;-82
2022/07/30 15:11:21;;;;;;;;;;;26.80;35.60;;;;;;5056064;28;20007;-82
2022/07/30 15:13:49;;;;;;;;;;;26.80;35.60;;;;;;5056208;28;19931;-79
2022/07/30 15:16:16;;;;;;;;;;;26.80;35.50;;;;;;5056137;28;20422;-79
2022/07/30 15:18:44;;;;;;;;;;;26.80;35.50;;;;;;5056115;28;19935;-80
2022/07/30 15:21:11;;;;;;;;;;;26.80;35.50;;;;;;5058593;28;19956;-79
2022/07/30 15:23:37;;;;;;;;;;;26.80;35.60;;;;;;5057090;28;19924;-79
2022/07/30 15:26:04;;;;;;;;;;;26.80;35.40;;;;;;5056321;28;20364;-79
2022/07/30 15:28:31;;;;;;;;;;;26.80;35.30;;;;;;5056259;28;20488;-81
2022/07/30 15:30:59;;;;;;;;;;;26.80;35.30;;;;;;5056130;28;19926;-79
2022/07/30 15:33:26;;;;;;;;;;;26.80;35.30;;;;;;5055942;28;20406;-79
2022/07/30 15:35:53;;;;;;;;;;;26.80;35.80;;;;;;5056704;28;20369;-79
2022/07/30 15:38:20;;;;;;;;;;;26.80;35.20;;;;;;5056373;28;19925;-79
2022/07/30 15:40:46;;;;;;;;;;;26.80;35.20;;;;;;5057267;28;20015;-79
2022/07/30 15:43:13;;;;;;;;;;;26.80;35.10;;;;;;5056312;28;19929;-80
2022/07/30 15:45:40;;;;;;;;;;;26.80;35.00;;;;;;5056467;28;19965;-80
2022/07/30 15:48:08;;;;;;;;;;;26.80;35.00;;;;;;5056481;28;19925;-80
2022/07/30 15:50:35;;;;;;;;;;;26.70;34.90;;;;;;5055970;28;19931;-80
2022/07/30 15:53:02;;;;;;;;;;;26.70;34.80;;;;;;5056188;28;20435;-80
2022/07/30 15:55:29;;;;;;;;;;;26.80;34.90;;;;;;5056882;28;19924;-79
2022/07/30 15:57:56;;;;;;;;;;;26.80;34.80;;;;;;5055725;28;20411;-80
2022/07/30 16:00:23;;;;;;;;;;;26.80;34.80;;;;;;5057188;28;20315;-79
2022/07/30 16:02:50;;;;;;;;;;;26.70;34.70;;;;;;5056745;28;19925;-79
2022/07/30 16:05:18;;;;;;;;;;;26.80;34.70;;;;;;5060825;28;20332;-79
2022/07/30 16:07:45;;;;;;;;;;;26.70;34.60;;;;;;5058903;28;20354;-79
2022/07/30 16:10:11;;;;;;;;;;;26.70;34.60;;;;;;5056096;28;19925;-80
2022/07/30 16:12:38;;;;;;;;;;;26.80;34.70;;;;;;5056251;28;19925;-79
2022/07/30 16:15:05;;;;;;;;;;;26.70;34.50;;;;;;5056755;28;19929;-80
2022/07/30 16:17:32;;;;;;;;;;;26.80;34.60;;;;;;5057186;28;19948;-80
2022/07/30 16:19:58;;;;;;;;;;;26.80;34.50;;;;;;5056050;28;19968;-79
2022/07/30 16:22:26;;;;;;;;;;;26.80;34.50;;;;;;5055968;28;19931;-79
2022/07/30 16:24:53;;;;;;;;;;;26.70;34.40;;;;;;5056264;28;20031;-79
2022/07/30 16:27:20;;;;;;;;;;;26.70;34.40;;;;;;5055700;28;20011;-79
2022/07/30 16:29:46;;;;;;;;;;;26.80;34.40;;;;;;5057767;28;19956;-80
2022/07/30 16:32:13;;;;;;;;;;;26.70;34.30;;;;;;5055917;28;19928;-80
2022/07/30 16:34:40;;;;;;;;;;;26.80;34.40;;;;;;5056101;28;19964;-79
2022/07/30 16:37:06;;;;;;;;;;;26.80;34.40;;;;;;5056018;28;19931;-79
2022/07/30 16:39:34;;;;;;;;;;;26.80;34.30;;;;;;5056076;28;19964;-80
2022/07/30 16:42:01;;;;;;;;;;;26.80;34.30;;;;;;5056560;28;20447;-80
2022/07/30 16:44:30;;;;;;;;;;;26.80;34.30;;;;;;5055957;28;19932;-78
2022/07/30 16:46:57;;;;;;;;;;;26.80;34.30;;;;;;5057630;28;19993;-82
2022/07/30 16:49:24;;;;;;;;;;;26.80;34.20;;;;;;5057908;28;20007;-81
2022/07/30 16:51:50;;;;;;;;;;;26.80;34.20;;;;;;5057472;28;20004;-80
2022/07/30 16:54:17;;;;;;;;;;;26.80;34.20;;;;;;5058086;28;20031;-80
2022/07/30 16:56:45;;;;;;;;;;;26.80;34.20;;;;;;5058682;28;20019;-82
2022/07/30 16:59:13;;;;;;;;;;;26.80;34.20;;;;;;5059480;28;20020;-82
2022/07/30 17:01:39;;;;;;;;;;;26.80;34.20;;;;;;5057753;28;19947;-81
2022/07/30 17:04:06;;;;;;;;;;;26.80;34.20;;;;;;5057271;28;19976;-79
2022/07/30 17:06:34;;;;;;;;;;;26.80;34.20;;;;;;5056134;28;19964;-79
2022/07/30 17:09:01;;;;;;;;;;;26.80;34.20;;;;;;5056632;28;20368;-79
2022/07/30 17:11:27;;;;;;;;;;;26.80;34.20;;;;;;5057352;28;20021;-79
2022/07/30 17:13:55;;;;;;;;;;;26.80;34.80;;;;;;5057535;28;19935;-83
2022/07/30 17:16:22;;;;;;;;;;;26.80;34.20;;;;;;5057977;28;19924;-82
2022/07/30 17:18:49;;;;;;;;;;;26.80;34.20;;;;;;5059350;28;19979;-83
2022/07/30 17:21:16;;;;;;;;;;;26.80;34.20;;;;;;5057165;28;19964;-83
2022/07/30 17:23:42;;;;;;;;;;;26.80;34.20;;;;;;5057158;28;19968;-83
2022/07/30 17:26:10;;;;;;;;;;;26.80;34.30;;;;;;5056972;28;19979;-82
2022/07/30 17:28:37;;;;;;;;;;;26.80;34.30;;;;;;5057606;28;20015;-81
2022/07/30 17:31:05;;;;;;;;;;;26.80;34.30;;;;;;5056579;28;20015;-84
2022/07/30 17:33:31;;;;;;;;;;;26.80;34.30;;;;;;5058502;28;19963;-80
2022/07/30 17:35:58;;;;;;;;;;;26.80;34.40;;;;;;5057987;28;19995;-83
2022/07/30 17:38:27;;;;;;;;;;;26.80;34.30;;;;;;5058157;28;19987;-82
2022/07/30 17:40:53;;;;;;;;;;;26.90;34.40;;;;;;5058783;28;19974;-82
2022/07/30 17:43:20;;;;;;;;;;;26.80;34.40;;;;;;5060952;28;19925;-82
2022/07/30 17:45:47;;;;;;;;;;;26.80;34.40;;;;;;5061519;28;20015;-82
2022/07/30 17:48:16;;;;;;;;;;;26.80;34.40;;;;;;5060501;28;19975;-81
2022/07/30 17:50:43;;;;;;;;;;;26.80;34.40;;;;;;5059706;28;19954;-81
2022/07/30 17:53:10;;;;;;;;;;;26.80;34.50;;;;;;5059245;28;19980;-80
2022/07/30 17:55:36;;;;;;;;;;;26.80;34.60;;;;;;5058700;28;20012;-80
2022/07/30 17:58:03;;;;;;;;;;;26.90;34.70;;;;;;5061754;28;19971;-81
2022/07/30 18:00:30;;;;;;;;;;;26.90;35.30;;;;;;5061648;28;19970;-81
2022/07/30 18:02:57;;;;;;;;;;;26.90;34.70;;;;;;5060677;28;19969;-81
2022/07/30 18:05:25;;;;;;;;;;;26.90;34.80;;;;;;5059648;28;19971;-81
2022/07/30 18:07:52;;;;;;;;;;;26.90;34.80;;;;;;5060225;28;19925;-81
2022/07/30 18:10:18;;;;;;;;;;;26.90;34.90;;;;;;5062376;28;20012;-82
2022/07/30 18:12:45;;;;;;;;;;;26.90;34.90;;;;;;5061867;28;19992;-81
2022/07/30 18:15:12;;;;;;;;;;;26.90;35.00;;;;;;5061821;28;19972;-82
2022/07/30 18:17:38;;;;;;;;;;;26.90;35.00;;;;;;5060136;28;19964;-81
2022/07/30 18:20:06;;;;;;;;;;;26.90;35.00;;;;;;5060552;28;19999;-81
2022/07/30 18:22:34;;;;;;;;;;;26.80;35.00;;;;;;5058840;28;20015;-80
2022/07/30 18:25:01;;;;;;;;;;;26.80;35.10;;;;;;5058460;28;19931;-81
2022/07/30 18:27:28;;;;;;;;;;;26.90;35.20;;;;;;5059205;28;19972;-83
2022/07/30 18:29:55;;;;;;;;;;;26.80;35.20;;;;;;5058421;28;19924;-82
2022/07/30 18:32:23;;;;;;;;;;;26.80;35.20;;;;;;5058306;28;20295;-81
2022/07/30 18:34:50;;;;;;;;;;;26.80;35.20;;;;;;5058685;28;19925;-82
2022/07/30 18:37:16;;;;;;;;;;;26.90;35.30;;;;;;5058514;28;19925;-82
2022/07/30 18:39:44;;;;;;;;;;;26.80;35.30;;;;;;5058554;28;19971;-81
2022/07/30 18:42:11;;;;;;;;;;;26.80;36.00;;;;;;5058403;28;20012;-82
2022/07/30 18:44:38;;;;;;;;;;;26.90;35.40;;;;;;5057947;28;20015;-82
2022/07/30 18:47:04;;;;;;;;;;;26.90;35.40;;;;;;5057912;28;19967;-82
2022/07/30 18:49:31;;;;;;;;;;;26.80;35.40;;;;;;5058728;28;20019;-82
2022/07/30 18:51:59;;;;;;;;;;;26.80;35.50;;;;;;5058760;28;19925;-81
2022/07/30 18:54:26;;;;;;;;;;;26.80;35.50;;;;;;5056757;28;19935;-82
2022/07/30 18:56:54;;;;;;;;;;;26.80;35.60;;;;;;5058045;28;20019;-81
2022/07/30 18:59:21;;;;;;;;;;;26.80;35.80;;;;;;5058651;28;20011;-82
2022/07/30 19:01:48;;;;;;;;;;;26.90;35.90;;;;;;5058397;28;19932;-80
2022/07/30 19:04:14;;;;;;;;;;;26.90;36.00;;;;;;5060810;28;19925;-81
2022/07/30 19:06:41;;;;;;;;;;;26.90;36.10;;;;;;5058009;28;20015;-81
2022/07/30 19:09:11;;;;;;;;;;;26.90;36.20;;;;;;5058276;28;19964;-82
2022/07/30 19:11:38;;;;;;;;;;;26.90;36.30;;;;;;5058659;28;20357;-82
2022/07/30 19:14:06;;;;;;;;;;;26.90;36.40;;;;;;5058324;28;19931;-82
2022/07/30 19:16:33;;;;;;;;;;;26.90;36.50;;;;;;5057432;28;20414;-81
2022/07/30 19:18:59;;;;;;;;;;;26.90;36.50;;;;;;5057775;28;20422;-82
2022/07/30 19:21:26;;;;;;;;;;;26.90;36.60;;;;;;5058122;28;20455;-81
2022/07/30 19:23:53;;;;;;;;;;;26.90;36.70;;;;;;5058671;28;19980;-82
2022/07/30 19:26:19;;;;;;;;;;;26.90;36.80;;;;;;5059695;28;20011;-81
2022/07/30 19:28:46;;;;;;;;;;;26.90;36.90;;;;;;5060142;28;19968;-82
2022/07/30 19:31:15;;;;;;;;;;;26.90;37.00;;;;;;5056421;28;19972;-83
2022/07/30 19:33:42;;;;;;;;;;;26.90;37.10;;;;;;5059021;28;19956;-82
2022/07/30 19:36:08;;;;;;;;;;;26.90;37.20;;;;;;5059776;28;20284;-83
